Time;durP1;ratioP1;P1;durP2;ratioP2;P2;SDS_P1;SDS_P2;PMS_P1;PMS_P2;Temp;Humidity;BMP_temperature;BMP_pressure;BME280_temperature;BME280_humidity;BME280_pressure;Samples;Min_cycle;Max_cycle;Signal;HPM_P1;HPM_P2
2022/11/12 00:01:51;;;;;;;2.40;2.10;;;16.20;68.50;;;;;;5071055;28;20050;-70
2022/11/12 00:04:18;;;;;;;3.88;2.28;;;16.20;68.50;;;;;;5070496;28;20064;-70
2022/11/12 00:06:44;;;;;;;3.05;2.22;;;16.20;68.50;;;;;;5070472;28;20052;-70
2022/11/12 00:09:11;;;;;;;3.10;1.92;;;16.20;68.50;;;;;;5070665;28;20050;-70
2022/11/12 00:11:38;;;;;;;2.63;2.08;;;16.20;68.50;;;;;;5069828;28;20557;-70
2022/11/12 00:14:06;;;;;;;2.80;2.20;;;16.20;68.50;;;;;;5070722;28;20498;-70
2022/11/12 00:16:33;;;;;;;2.13;1.90;;;16.10;68.50;;;;;;5071164;28;20136;-70
2022/11/12 00:18:59;;;;;;;3.00;2.20;;;16.10;68.50;;;;;;5071272;28;20421;-72
2022/11/12 00:21:26;;;;;;;2.90;2.17;;;16.10;68.50;;;;;;5069706;28;20052;-71
2022/11/12 00:23:53;;;;;;;2.88;1.90;;;16.10;68.50;;;;;;5069737;28;20063;-71
2022/11/12 00:26:20;;;;;;;3.72;2.50;;;16.10;68.50;;;;;;5070001;28;20412;-70
2022/11/12 00:28:46;;;;;;;2.72;2.10;;;16.10;68.50;;;;;;5071334;28;20131;-71
2022/11/12 00:31:14;;;;;;;3.75;2.15;;;16.00;68.50;;;;;;5069561;28;20066;-72
2022/11/12 00:33:41;;;;;;;2.75;2.08;;;16.10;68.60;;;;;;5070854;28;20049;-71
2022/11/12 00:36:08;;;;;;;3.03;2.30;;;16.00;68.50;;;;;;5070899;28;20528;-71
2022/11/12 00:38:35;;;;;;;2.60;2.30;;;16.00;68.50;;;;;;5070398;28;20517;-71
2022/11/12 00:41:01;;;;;;;2.72;2.28;;;16.00;68.50;;;;;;5070714;28;20040;-71
2022/11/12 00:43:28;;;;;;;3.38;2.15;;;16.00;68.50;;;;;;5070481;28;20519;-71
2022/11/12 00:45:55;;;;;;;3.55;2.28;;;16.00;68.50;;;;;;5070762;28;20135;-71
2022/11/12 00:48:23;;;;;;;3.15;2.25;;;16.00;68.50;;;;;;5071366;28;20044;-71
2022/11/12 00:50:50;;;;;;;4.07;2.60;;;15.90;68.40;;;;;;5069908;28;20055;-71
2022/11/12 00:53:16;;;;;;;4.22;2.40;;;15.90;68.40;;;;;;5071629;28;20055;-71
2022/11/12 00:55:43;;;;;;;4.90;2.35;;;15.90;68.40;;;;;;5070923;28;20140;-71
2022/11/12 00:58:10;;;;;;;3.17;2.50;;;15.90;68.40;;;;;;5071506;28;20122;-71
2022/11/12 01:00:36;;;;;;;2.83;2.30;;;15.90;68.40;;;;;;5069924;28;20097;-70
2022/11/12 01:03:03;;;;;;;4.10;2.42;;;15.90;68.40;;;;;;5070492;28;20059;-72
2022/11/12 01:05:32;;;;;;;4.60;2.58;;;15.90;68.40;;;;;;5070254;28;20423;-72
2022/11/12 01:07:59;;;;;;;3.80;2.40;;;15.90;68.40;;;;;;5070800;28;20056;-72
2022/11/12 01:10:26;;;;;;;3.00;2.40;;;15.80;68.30;;;;;;5070208;28;20058;-72
2022/11/12 01:12:52;;;;;;;3.33;2.40;;;15.80;68.30;;;;;;5070025;28;20488;-72
2022/11/12 01:15:19;;;;;;;3.00;2.42;;;15.80;68.30;;;;;;5071660;28;20049;-72
2022/11/12 01:17:46;;;;;;;2.92;2.38;;;15.80;68.30;;;;;;5071481;28;20052;-72
2022/11/12 01:20:12;;;;;;;3.38;2.42;;;15.80;68.30;;;;;;5069952;28;20063;-72
2022/11/12 01:22:40;;;;;;;3.85;2.60;;;15.80;68.30;;;;;;5071313;28;20343;-72
2022/11/12 01:25:08;;;;;;;3.28;2.50;;;15.80;68.40;;;;;;5071242;28;20049;-72
2022/11/12 01:27:34;;;;;;;3.10;2.42;;;15.80;68.30;;;;;;5070500;28;20052;-72
2022/11/12 01:30:01;;;;;;;2.92;2.40;;;15.80;68.40;;;;;;5070958;28;20056;-72
2022/11/12 01:32:28;;;;;;;3.22;2.30;;;15.80;68.40;;;;;;5071217;28;20132;-72
2022/11/12 01:34:54;;;;;;;3.63;2.40;;;15.70;68.30;;;;;;5071173;28;20056;-72
2022/11/12 01:37:21;;;;;;;2.80;2.30;;;15.70;68.30;;;;;;5072064;28;20053;-72
2022/11/12 01:39:49;;;;;;;3.95;2.60;;;15.70;68.30;;;;;;5071813;28;20051;-71
2022/11/12 01:42:16;;;;;;;3.35;2.45;;;15.70;68.30;;;;;;5071754;28;20059;-72
2022/11/12 01:44:44;;;;;;;2.92;2.50;;;15.70;68.30;;;;;;5071455;28;20055;-72
2022/11/12 01:47:12;;;;;;;3.70;2.90;;;15.70;68.30;;;;;;5073165;28;20052;-72
2022/11/12 01:49:41;;;;;;;2.88;2.38;;;15.70;68.30;;;;;;5072323;28;20048;-72
2022/11/12 01:52:13;;;;;;;3.85;2.78;;;15.70;68.30;;;;;;5072058;28;20049;-72
2022/11/12 01:54:39;;;;;;;3.95;2.38;;;15.60;68.20;;;;;;5071457;28;20075;-72
2022/11/12 01:57:08;;;;;;;3.08;2.53;;;15.60;68.80;;;;;;5072870;28;20051;-71
2022/11/12 01:59:37;;;;;;;3.08;2.50;;;15.60;68.30;;;;;;5073024;28;20044;-72
2022/11/12 02:02:04;;;;;;;3.30;2.58;;;15.60;68.20;;;;;;5071859;28;20052;-72
2022/11/12 02:04:31;;;;;;;3.83;2.65;;;15.60;68.30;;;;;;5071899;28;20053;-72
2022/11/12 02:06:58;;;;;;;3.17;2.47;;;15.60;68.20;;;;;;5071801;28;20139;-72
2022/11/12 02:09:24;;;;;;;3.88;2.88;;;15.60;68.30;;;;;;5072230;28;20045;-72
2022/11/12 02:11:51;;;;;;;3.05;2.42;;;15.60;68.20;;;;;;5069587;28;20139;-71
2022/11/12 02:14:19;;;;;;;3.33;2.65;;;15.60;68.20;;;;;;5070099;28;20131;-71
2022/11/12 02:16:46;;;;;;;2.83;2.53;;;15.60;68.20;;;;;;5071843;28;20409;-71
2022/11/12 02:19:14;;;;;;;2.95;2.20;;;15.60;68.20;;;;;;5056950;28;20056;-71
2022/11/12 02:21:42;;;;;;;3.22;2.45;;;15.60;68.70;;;;;;5072061;28;20123;-71
2022/11/12 02:24:36;;;;;;;3.53;2.75;;;15.50;68.20;;;;;;5074466;28;20048;-71
2022/11/12 02:27:03;;;;;;;3.20;2.30;;;15.60;68.10;;;;;;5074567;28;20141;-71
2022/11/12 02:29:30;;;;;;;3.20;2.55;;;15.50;68.30;;;;;;5072992;28;20052;-71
2022/11/12 02:31:56;;;;;;;3.88;2.65;;;15.50;68.20;;;;;;5072447;28;20078;-71
2022/11/12 02:34:23;;;;;;;4.00;2.60;;;15.50;68.20;;;;;;5073288;28;20063;-71
2022/11/12 02:36:51;;;;;;;2.95;2.40;;;15.50;68.20;;;;;;5073338;28;20078;-71
2022/11/12 02:39:18;;;;;;;3.78;2.30;;;15.50;68.10;;;;;;5073141;28;20059;-71
2022/11/12 02:41:45;;;;;;;3.25;2.65;;;15.50;68.10;;;;;;5072393;28;20045;-72
2022/11/12 02:44:11;;;;;;;3.47;2.65;;;15.50;68.10;;;;;;5076126;28;20063;-72
2022/11/12 02:46:38;;;;;;;3.03;2.40;;;15.50;68.10;;;;;;5074680;28;20052;-72
2022/11/12 02:49:05;;;;;;;2.85;2.15;;;15.50;68.10;;;;;;5074562;28;20504;-72
2022/11/12 02:51:31;;;;;;;3.00;2.40;;;15.50;68.10;;;;;;5073744;28;20052;-72
2022/11/12 02:53:59;;;;;;;4.45;2.70;;;15.40;68.00;;;;;;5075597;28;20044;-72
2022/11/12 02:56:26;;;;;;;2.92;2.47;;;15.40;68.00;;;;;;5074492;28;20060;-71
2022/11/12 02:58:53;;;;;;;4.07;2.50;;;15.40;68.00;;;;;;5074772;28;20510;-72
2022/11/12 03:01:19;;;;;;;3.42;2.50;;;15.40;68.00;;;;;;5074579;28;20074;-72
2022/11/12 03:03:46;;;;;;;2.97;2.20;;;15.40;68.00;;;;;;5075486;28;20055;-71
2022/11/12 03:06:13;;;;;;;3.80;2.40;;;15.40;68.00;;;;;;5075278;28;20049;-72
2022/11/12 03:08:40;;;;;;;3.40;2.55;;;15.40;68.00;;;;;;5075616;28;20052;-72
2022/11/12 03:11:08;;;;;;;4.00;2.83;;;15.40;67.90;;;;;;5073753;28;20056;-72
2022/11/12 03:13:35;;;;;;;3.88;2.50;;;15.40;69.40;;;;;;5075277;28;20080;-72
2022/11/12 03:16:02;;;;;;;4.28;2.30;;;15.40;67.90;;;;;;5075358;28;20048;-72
2022/11/12 03:18:28;;;;;;;3.30;2.58;;;15.40;67.90;;;;;;5075534;28;20045;-71
2022/11/12 03:20:55;;;;;;;4.43;2.70;;;15.40;67.90;;;;;;5074297;28;20044;-72
2022/11/12 03:23:22;;;;;;;4.18;2.35;;;15.40;67.90;;;;;;5075098;28;20074;-72
2022/11/12 03:25:48;;;;;;;3.30;2.58;;;15.40;67.80;;;;;;5075209;28;20059;-72
2022/11/12 03:28:17;;;;;;;3.10;2.35;;;15.40;68.30;;;;;;5074897;28;20049;-72
2022/11/12 03:30:43;;;;;;;4.65;2.92;;;15.30;67.70;;;;;;5072888;28;20045;-72
2022/11/12 03:33:11;;;;;;;3.72;2.50;;;15.30;67.70;;;;;;5074488;28;20131;-72
2022/11/12 03:35:38;;;;;;;3.97;2.38;;;15.40;67.70;;;;;;5072253;28;20075;-72
2022/11/12 03:38:05;;;;;;;2.80;2.47;;;15.30;67.70;;;;;;5073343;28;20055;-72
2022/11/12 03:40:32;;;;;;;3.10;2.50;;;15.30;67.70;;;;;;5071896;28;20112;-72
2022/11/12 03:42:59;;;;;;;4.93;2.42;;;15.30;67.60;;;;;;5073212;28;20058;-72
2022/11/12 03:45:27;;;;;;;3.80;2.58;;;15.30;67.60;;;;;;5072158;28;20062;-71
2022/11/12 03:47:55;;;;;;;2.63;2.28;;;15.30;67.50;;;;;;5073177;28;20048;-72
2022/11/12 03:50:23;;;;;;;2.97;2.40;;;15.30;67.60;;;;;;5073420;28;20041;-71
2022/11/12 03:52:50;;;;;;;3.45;2.65;;;15.30;67.70;;;;;;5073598;28;20044;-72
2022/11/12 03:55:19;;;;;;;2.53;2.20;;;15.30;67.70;;;;;;5072235;28;20135;-72
2022/11/12 03:57:47;;;;;;;3.28;2.50;;;15.30;67.70;;;;;;5073435;28;20064;-72
2022/11/12 04:00:14;;;;;;;3.35;2.20;;;15.20;67.70;;;;;;5071947;28;20140;-72
2022/11/12 04:02:42;;;;;;;3.17;2.50;;;15.30;67.80;;;;;;5072723;28;20119;-72
2022/11/12 04:10:41;;;;;;;3.10;2.33;;;15.20;67.80;;;;;;5071846;28;20048;-72
2022/11/12 04:21:56;;;;;;;3.20;2.40;;;15.20;67.80;;;;;;5071843;28;20052;-71
2022/11/12 04:27:10;;;;;;;2.78;2.05;;;15.20;67.80;;;;;;5073584;28;20513;-72
2022/11/12 04:32:21;;;;;;;2.60;2.15;;;15.20;67.80;;;;;;5071202;28;20044;-72
2022/11/12 04:34:49;;;;;;;3.10;2.28;;;15.10;67.80;;;;;;5073098;28;20055;-72
2022/11/12 04:37:15;;;;;;;3.15;2.50;;;15.20;67.70;;;;;;5072084;28;20527;-72
2022/11/12 04:39:42;;;;;;;3.17;2.10;;;15.20;67.70;;;;;;5071640;28;20094;-72
2022/11/12 04:45:02;;;;;;;2.70;2.20;;;15.20;67.70;;;;;;5070788;28;20493;-72
2022/11/12 04:47:34;;;;;;;2.80;2.20;;;15.10;67.60;;;;;;5070930;28;20052;-72
2022/11/12 04:50:02;;;;;;;3.13;2.30;;;15.10;67.60;;;;;;5070474;28;20058;-72
2022/11/12 04:52:29;;;;;;;3.20;2.28;;;15.10;67.60;;;;;;5070677;28;20063;-72
2022/11/12 04:54:55;;;;;;;3.00;2.30;;;15.10;67.70;;;;;;5070345;28;20059;-72
2022/11/12 04:57:22;;;;;;;2.97;2.20;;;15.10;67.70;;;;;;5070920;28;20060;-72
2022/11/12 04:59:49;;;;;;;4.00;2.45;;;15.10;67.60;;;;;;5070874;28;20416;-72
2022/11/12 05:02:16;;;;;;;3.92;2.25;;;15.10;67.70;;;;;;5071042;28;20049;-72
2022/11/12 05:04:42;;;;;;;2.80;1.98;;;15.10;67.60;;;;;;5071560;28;20044;-72
2022/11/12 05:07:10;;;;;;;2.60;2.10;;;15.10;67.70;;;;;;5070807;28;20053;-72
2022/11/12 05:09:37;;;;;;;3.15;2.42;;;15.10;67.70;;;;;;5070809;28;20139;-72
2022/11/12 05:12:04;;;;;;;2.50;2.00;;;15.10;67.70;;;;;;5069532;28;20491;-72
2022/11/12 05:14:30;;;;;;;3.00;2.20;;;15.10;67.70;;;;;;5071435;28;20044;-72
2022/11/12 05:16:57;;;;;;;2.97;2.17;;;15.10;67.60;;;;;;5071642;28;20045;-72
2022/11/12 05:19:24;;;;;;;3.75;2.38;;;15.10;67.60;;;;;;5070401;28;20481;-72
2022/11/12 05:22:05;;;;;;;3.55;2.47;;;15.10;67.60;;;;;;5069653;28;20071;-72
2022/11/12 05:24:35;;;;;;;3.20;2.60;;;15.10;67.60;;;;;;5070094;28;20055;-72
2022/11/12 05:27:02;;;;;;;2.78;2.13;;;15.10;67.50;;;;;;5071578;28;20049;-72
2022/11/12 05:29:29;;;;;;;3.75;2.47;;;15.10;67.50;;;;;;5070549;28;20057;-72
2022/11/12 05:31:55;;;;;;;2.83;2.25;;;15.10;67.50;;;;;;5069589;28;20048;-72
2022/11/12 05:34:22;;;;;;;3.00;2.20;;;15.10;67.50;;;;;;5071416;28;20131;-72
2022/11/12 05:36:49;;;;;;;3.17;2.13;;;15.10;67.50;;;;;;5071924;28;20055;-72
2022/11/12 05:39:15;;;;;;;2.83;2.10;;;15.10;67.50;;;;;;5070628;28;20062;-72
2022/11/12 05:41:43;;;;;;;2.83;2.22;;;15.10;67.50;;;;;;5070718;28;20084;-72
2022/11/12 05:44:10;;;;;;;3.40;2.42;;;15.10;67.40;;;;;;5069927;28;20058;-72
2022/11/12 05:46:37;;;;;;;3.70;2.45;;;15.10;67.40;;;;;;5071380;28;20558;-72
2022/11/12 05:49:03;;;;;;;3.00;2.30;;;15.10;67.50;;;;;;5071427;28;20047;-72
2022/11/12 05:51:30;;;;;;;2.65;2.10;;;15.10;67.40;;;;;;5071260;28;20190;-72
2022/11/12 05:53:57;;;;;;;3.20;2.20;;;15.10;67.40;;;;;;5075058;28;20135;-72
2022/11/12 05:56:24;;;;;;;2.45;1.98;;;15.10;67.40;;;;;;5073994;28;20056;-72
2022/11/12 05:58:52;;;;;;;2.70;2.17;;;15.10;67.40;;;;;;5074656;28;20443;-72
2022/11/12 06:01:18;;;;;;;2.78;2.10;;;15.10;67.40;;;;;;5073242;28;20048;-72
2022/11/12 06:03:45;;;;;;;3.30;2.20;;;15.10;67.40;;;;;;5074954;28;20470;-72
2022/11/12 06:06:12;;;;;;;3.15;2.25;;;15.10;67.40;;;;;;5073330;28;20053;-72
2022/11/12 06:08:38;;;;;;;3.28;2.22;;;15.10;67.30;;;;;;5074839;28;20052;-72
2022/11/12 06:11:05;;;;;;;3.75;2.50;;;15.10;67.30;;;;;;5072812;28;20044;-72
2022/11/12 06:13:32;;;;;;;2.65;2.05;;;15.10;67.30;;;;;;5074805;28;20052;-72
2022/11/12 06:16:00;;;;;;;2.78;2.17;;;15.10;67.30;;;;;;5073708;28;20054;-72
2022/11/12 06:18:27;;;;;;;3.70;2.40;;;15.10;67.30;;;;;;5073606;28;20394;-72
2022/11/12 06:23:37;;;;;;;2.67;2.10;;;15.10;67.20;;;;;;5074353;28;20131;-72
2022/11/12 06:26:04;;;;;;;3.13;2.40;;;15.10;67.20;;;;;;5073590;28;20049;-72
2022/11/12 06:28:31;;;;;;;2.92;2.30;;;15.00;67.10;;;;;;5073413;28;20131;-72
2022/11/12 06:30:58;;;;;;;3.58;2.38;;;15.00;67.10;;;;;;5073694;28;20044;-72
2022/11/12 06:33:26;;;;;;;2.50;2.30;;;15.10;67.20;;;;;;5073121;28;20056;-72
2022/11/12 06:36:01;;;;;;;3.00;2.53;;;15.00;67.10;;;;;;5074911;28;20048;-72
2022/11/12 06:38:29;;;;;;;3.80;2.38;;;15.00;67.10;;;;;;5075292;28;20137;-72
2022/11/12 06:40:55;;;;;;;3.42;2.33;;;15.00;67.10;;;;;;5073306;28;20512;-72
2022/11/12 06:43:22;;;;;;;3.05;2.25;;;15.00;67.10;;;;;;5074958;28;20048;-72
2022/11/12 06:45:49;;;;;;;3.50;2.30;;;15.00;67.10;;;;;;5073318;28;20065;-72
2022/11/12 06:48:15;;;;;;;2.90;2.28;;;15.00;67.10;;;;;;5073838;28;20056;-72
2022/11/12 06:50:43;;;;;;;3.40;2.38;;;15.00;67.00;;;;;;5072822;28;20494;-72
2022/11/12 06:53:10;;;;;;;4.05;2.22;;;15.00;67.00;;;;;;5073524;28;20056;-71
2022/11/12 06:55:37;;;;;;;3.10;2.47;;;15.00;67.00;;;;;;5073565;28;20052;-71
2022/11/12 06:58:03;;;;;;;3.17;2.33;;;15.00;67.00;;;;;;5072764;28;20059;-71
2022/11/12 07:00:30;;;;;;;3.17;2.30;;;15.00;67.00;;;;;;5072315;28;20063;-71
2022/11/12 07:02:57;;;;;;;3.22;2.50;;;15.00;66.90;;;;;;5073326;28;20462;-71
2022/11/12 07:05:23;;;;;;;2.70;2.22;;;15.00;66.90;;;;;;5071657;28;20059;-71
2022/11/12 07:07:51;;;;;;;3.20;2.40;;;15.00;67.00;;;;;;5072839;28;20052;-71
2022/11/12 07:10:18;;;;;;;2.83;2.22;;;15.00;66.90;;;;;;5073237;28;20052;-71
2022/11/12 07:12:45;;;;;;;2.80;2.28;;;15.00;66.90;;;;;;5073677;28;20409;-71
2022/11/12 07:15:12;;;;;;;3.40;2.10;;;15.00;66.90;;;;;;5073231;28;20053;-72
2022/11/12 07:17:38;;;;;;;3.10;2.40;;;15.00;66.90;;;;;;5073452;28;20049;-72
2022/11/12 07:20:06;;;;;;;3.70;2.67;;;15.00;66.90;;;;;;5071943;28;20056;-72
2022/11/12 07:22:33;;;;;;;2.75;2.20;;;15.00;66.90;;;;;;5073405;28;20057;-72
2022/11/12 07:25:01;;;;;;;3.50;2.35;;;15.00;66.90;;;;;;5071752;28;20060;-72
2022/11/12 07:27:29;;;;;;;2.85;2.08;;;15.00;66.90;;;;;;5073494;28;20531;-72
2022/11/12 07:29:56;;;;;;;2.75;2.20;;;15.00;66.90;;;;;;5071822;28;20056;-72
2022/11/12 07:32:22;;;;;;;2.38;2.15;;;15.00;66.90;;;;;;5072290;28;20438;-72
2022/11/12 07:34:50;;;;;;;3.85;2.28;;;15.00;66.90;;;;;;5071709;28;20056;-72
2022/11/12 07:37:16;;;;;;;3.10;2.20;;;15.00;66.90;;;;;;5071956;28;20059;-72
2022/11/12 07:39:43;;;;;;;2.72;2.10;;;15.00;66.80;;;;;;5073051;28;20056;-71
2022/11/12 07:42:11;;;;;;;3.17;2.30;;;15.00;66.80;;;;;;5071316;28;20059;-71
2022/11/12 07:44:38;;;;;;;3.13;2.20;;;15.00;66.80;;;;;;5071945;28;20064;-71
2022/11/12 07:47:04;;;;;;;2.88;2.20;;;15.00;66.80;;;;;;5071918;28;20058;-71
2022/11/12 07:49:31;;;;;;;2.47;2.15;;;15.00;66.80;;;;;;5071669;28;20107;-71
2022/11/12 07:51:58;;;;;;;2.72;2.33;;;15.00;66.80;;;;;;5070706;28;20049;-71
2022/11/12 07:54:24;;;;;;;2.80;2.30;;;15.00;66.80;;;;;;5071759;28;20059;-72
2022/11/12 07:56:51;;;;;;;2.80;2.20;;;15.00;66.70;;;;;;5071746;28;20482;-71
2022/11/12 07:59:19;;;;;;;2.40;2.10;;;15.00;66.70;;;;;;5071127;28;20056;-71
2022/11/12 08:01:46;;;;;;;2.70;2.20;;;15.00;66.70;;;;;;5070629;28;20059;-71
2022/11/12 08:04:12;;;;;;;2.88;2.15;;;15.00;66.70;;;;;;5072532;28;20215;-71
2022/11/12 08:06:39;;;;;;;2.95;2.35;;;15.00;66.70;;;;;;5071629;28;20049;-71
2022/11/12 08:09:07;;;;;;;2.60;2.13;;;15.00;66.70;;;;;;5071099;28;20056;-71
2022/11/12 08:11:33;;;;;;;2.95;2.30;;;15.00;66.70;;;;;;5070361;28;20040;-72
2022/11/12 08:14:00;;;;;;;3.17;2.47;;;15.00;66.70;;;;;;5070659;28;20066;-71
2022/11/12 08:16:28;;;;;;;2.88;2.20;;;15.00;66.60;;;;;;5071232;28;20048;-71
2022/11/12 08:18:55;;;;;;;2.85;2.20;;;15.00;66.60;;;;;;5071341;28;20060;-71
2022/11/12 08:21:22;;;;;;;3.10;2.42;;;15.00;66.60;;;;;;5070202;28;20044;-71
2022/11/12 08:23:48;;;;;;;2.58;1.98;;;15.00;66.60;;;;;;5070349;28;20058;-71
2022/11/12 08:26:16;;;;;;;2.95;2.28;;;15.00;66.60;;;;;;5071263;28;20063;-71
2022/11/12 08:28:43;;;;;;;2.70;2.28;;;15.00;66.50;;;;;;5070995;28;20201;-73
2022/11/12 08:31:10;;;;;;;2.70;2.22;;;15.00;66.60;;;;;;5070349;28;20063;-73
2022/11/12 08:33:39;;;;;;;2.78;2.40;;;15.00;66.60;;;;;;5070203;28;20066;-73
2022/11/12 08:36:07;;;;;;;2.78;2.30;;;15.00;66.60;;;;;;5049793;28;20055;-73
2022/11/12 08:38:33;;;;;;;2.92;2.60;;;15.00;66.60;;;;;;5050825;28;20057;-73
2022/11/12 08:41:01;;;;;;;2.97;2.67;;;15.00;66.60;;;;;;5050441;28;20055;-72
2022/11/12 08:43:27;;;;;;;2.67;2.10;;;15.00;66.60;;;;;;5050484;28;20056;-72
2022/11/12 08:45:54;;;;;;;3.35;2.20;;;15.10;66.70;;;;;;5050995;28;20063;-72
2022/11/12 08:48:21;;;;;;;3.38;2.70;;;15.10;66.80;;;;;;5050868;28;20140;-72
2022/11/12 08:50:49;;;;;;;3.28;2.35;;;15.10;66.80;;;;;;5050177;28;20052;-72
2022/11/12 08:53:15;;;;;;;3.80;2.30;;;15.20;66.80;;;;;;5050195;28;20055;-72
2022/11/12 08:55:42;;;;;;;2.67;2.20;;;15.20;66.80;;;;;;5050728;28;20143;-72
2022/11/12 08:58:09;;;;;;;5.03;2.60;;;15.20;66.70;;;;;;5050921;28;20060;-71
2022/11/12 09:00:38;;;;;;;2.75;2.30;;;15.30;66.70;;;;;;5050311;28;20246;-71
2022/11/12 09:03:05;;;;;;;3.00;2.50;;;15.30;66.70;;;;;;5050485;28;20132;-72
2022/11/12 09:05:32;;;;;;;3.20;2.58;;;15.30;66.70;;;;;;5050343;28;20053;-71
2022/11/12 09:08:00;;;;;;;3.15;2.30;;;15.30;66.70;;;;;;5050014;28;20053;-72
2022/11/12 09:10:27;;;;;;;3.63;2.55;;;15.30;66.60;;;;;;5049724;28;20052;-72
2022/11/12 09:12:54;;;;;;;3.72;2.67;;;15.30;66.60;;;;;;5050516;28;20056;-72
2022/11/12 09:15:21;;;;;;;3.67;2.78;;;15.40;66.70;;;;;;5050555;28;20067;-72
2022/11/12 09:17:48;;;;;;;3.90;2.55;;;15.40;66.60;;;;;;5051640;28;20138;-72
2022/11/12 09:20:15;;;;;;;4.13;2.65;;;15.40;66.60;;;;;;5049845;28;20136;-72
2022/11/12 09:22:41;;;;;;;4.10;2.65;;;15.50;66.70;;;;;;5050140;28;20053;-71
2022/11/12 09:25:10;;;;;;;4.97;3.10;;;15.50;66.60;;;;;;5051502;28;20486;-72
2022/11/12 09:27:36;;;;;;;3.40;2.60;;;15.50;66.60;;;;;;5054444;28;20059;-71
2022/11/12 09:30:05;;;;;;;4.15;2.80;;;15.60;66.60;;;;;;5054349;28;20512;-72
2022/11/12 09:32:32;;;;;;;3.28;2.70;;;15.60;66.60;;;;;;5054282;28;20048;-71
2022/11/12 09:34:58;;;;;;;5.07;2.67;;;15.60;66.50;;;;;;5054368;28;20520;-71
2022/11/12 09:37:25;;;;;;;3.10;2.60;;;15.70;67.00;;;;;;5055820;28;20049;-71
2022/11/12 09:39:52;;;;;;;4.40;3.05;;;15.70;66.50;;;;;;5054139;28;20060;-71
2022/11/12 09:42:21;;;;;;;3.42;2.63;;;15.70;66.40;;;;;;5055093;28;20045;-71
2022/11/12 09:45:01;;;;;;;3.70;2.63;;;15.70;66.40;;;;;;5062842;28;20540;-71
2022/11/12 09:47:30;;;;;;;3.67;2.83;;;15.70;66.40;;;;;;5074046;28;20052;-72
2022/11/12 09:49:59;;;;;;;4.15;2.80;;;15.70;66.40;;;;;;5061131;28;20056;-71
2022/11/12 09:52:27;;;;;;;3.92;2.60;;;15.70;66.40;;;;;;5055047;28;20417;-71
2022/11/12 09:54:57;;;;;;;4.78;2.67;;;15.70;66.40;;;;;;5054776;28;20562;-71
2022/11/12 09:57:25;;;;;;;3.08;2.53;;;15.70;66.40;;;;;;5053962;28;20425;-71
2022/11/12 09:59:52;;;;;;;3.55;2.55;;;15.70;66.40;;;;;;5053732;28;20562;-70
2022/11/12 10:02:24;;;;;;;4.10;2.60;;;15.70;66.40;;;;;;5053208;28;20057;-71
2022/11/12 10:04:59;;;;;;;2.60;2.30;;;15.70;66.40;;;;;;5053291;28;20063;-71
2022/11/12 10:07:34;;;;;;;3.75;2.78;;;15.80;66.40;;;;;;5054038;28;20049;-72
2022/11/12 10:10:03;;;;;;;3.35;2.53;;;15.80;66.40;;;;;;5053276;28;20056;-72
2022/11/12 10:12:37;;;;;;;3.55;2.75;;;15.80;66.40;;;;;;5054389;28;20045;-72
2022/11/12 10:18:30;;;;;;;3.92;2.83;;;15.80;66.40;;;;;;5053529;28;20390;-72
2022/11/12 10:20:59;;;;;;;3.53;2.50;;;15.80;66.40;;;;;;5054202;28;20417;-72
2022/11/12 10:23:27;;;;;;;3.08;2.60;;;15.80;66.30;;;;;;5053481;28;20049;-73
2022/11/12 10:25:57;;;;;;;4.07;2.60;;;15.80;66.30;;;;;;5054220;28;20045;-72
2022/11/12 10:28:28;;;;;;;3.95;2.70;;;15.80;66.30;;;;;;5052791;28;20135;-72
2022/11/12 10:30:55;;;;;;;3.55;2.70;;;15.90;66.30;;;;;;5055244;28;20493;-72
2022/11/12 10:33:22;;;;;;;3.45;2.55;;;15.90;66.30;;;;;;5063287;28;20505;-73
2022/11/12 10:35:49;;;;;;;3.80;2.70;;;15.90;66.20;;;;;;5063761;28;20125;-72
2022/11/12 10:38:18;;;;;;;3.38;2.55;;;15.90;66.30;;;;;;5062487;28;20044;-72
2022/11/12 10:40:45;;;;;;;4.53;2.80;;;15.90;66.20;;;;;;5063370;28;20340;-72
2022/11/12 10:43:21;;;;;;;3.47;2.58;;;15.90;66.30;;;;;;5062654;28;20047;-71
2022/11/12 10:45:49;;;;;;;3.67;2.47;;;15.90;66.20;;;;;;5065883;28;20052;-72
2022/11/12 10:48:24;;;;;;;3.92;2.50;;;15.90;66.30;;;;;;5063728;28;20063;-71
2022/11/12 10:50:50;;;;;;;3.72;2.65;;;15.90;66.30;;;;;;5055239;28;20084;-71
2022/11/12 10:53:32;;;;;;;3.42;2.42;;;15.90;66.30;;;;;;5068143;28;20420;-71
2022/11/12 10:55:59;;;;;;;4.50;2.60;;;16.00;66.30;;;;;;5073116;28;20482;-71
2022/11/12 10:58:26;;;;;;;5.95;2.97;;;16.00;66.30;;;;;;5063262;28;20136;-70
2022/11/12 11:00:58;;;;;;;3.38;2.60;;;16.00;66.30;;;;;;5062576;28;20044;-72
2022/11/12 11:03:26;;;;;;;2.72;2.40;;;16.00;66.30;;;;;;5053297;28;20473;-72
2022/11/12 11:05:55;;;;;;;3.97;2.42;;;16.00;66.30;;;;;;5067651;28;20159;-72
2022/11/12 11:08:38;;;;;;;3.10;2.33;;;16.00;66.30;;;;;;5053793;28;20081;-73
2022/11/12 11:11:19;;;;;;;3.42;2.42;;;16.00;66.70;;;;;;5051952;28;20131;-73
2022/11/12 11:13:46;;;;;;;3.58;2.58;;;16.00;66.30;;;;;;5052604;28;20052;-71
2022/11/12 11:16:14;;;;;;;2.90;2.30;;;16.00;66.30;;;;;;5053536;28;20174;-71
2022/11/12 11:18:42;;;;;;;3.33;2.60;;;16.00;66.30;;;;;;5052111;28;20056;-71
2022/11/12 11:21:14;;;;;;;3.95;2.70;;;16.00;66.30;;;;;;5051628;28;20063;-71
2022/11/12 11:23:44;;;;;;;3.83;2.60;;;16.00;66.20;;;;;;5053397;28;20052;-71
2022/11/12 11:26:22;;;;;;;3.63;2.75;;;16.00;66.20;;;;;;5053521;28;20288;-72
2022/11/12 11:28:51;;;;;;;2.85;2.47;;;16.00;66.20;;;;;;5064342;28;20057;-71
2022/11/12 11:31:23;;;;;;;3.35;2.55;;;16.00;66.30;;;;;;5051226;28;20060;-71
2022/11/12 11:33:53;;;;;;;4.05;2.63;;;16.00;66.30;;;;;;5052076;28;20055;-72
2022/11/12 11:36:21;;;;;;;3.75;2.65;;;15.90;66.20;;;;;;5053253;28;20049;-72
2022/11/12 11:38:55;;;;;;;3.40;2.80;;;16.00;66.30;;;;;;5052394;28;20056;-72
2022/11/12 11:41:43;;;;;;;3.60;2.53;;;15.90;66.30;;;;;;5051787;28;20057;-71
2022/11/12 11:44:15;;;;;;;2.70;2.25;;;15.90;66.30;;;;;;5052909;28;20505;-72
2022/11/12 11:46:49;;;;;;;3.65;2.40;;;15.90;66.30;;;;;;5051702;28;20049;-72
2022/11/12 11:49:28;;;;;;;3.00;2.50;;;15.90;66.30;;;;;;5052543;28;20140;-76
2022/11/12 11:51:57;;;;;;;4.30;2.25;;;15.90;66.30;;;;;;5052315;28;20041;-73
2022/11/12 11:54:35;;;;;;;4.47;2.50;;;15.90;66.40;;;;;;5052799;28;20135;-70
2022/11/12 11:57:04;;;;;;;3.67;2.88;;;15.90;66.30;;;;;;5052657;28;20512;-72
2022/11/12 11:59:40;;;;;;;4.25;2.90;;;15.90;66.40;;;;;;5052120;28;20095;-72
2022/11/12 12:02:37;;;;;;;4.25;2.47;;;15.80;68.60;;;;;;5052654;28;20135;-71
2022/11/12 12:05:08;;;;;;;3.85;2.92;;;15.90;66.30;;;;;;5051320;28;20053;-71
2022/11/12 12:07:37;;;;;;;3.05;2.53;;;15.80;66.40;;;;;;5051770;28;20057;-71
2022/11/12 12:10:06;;;;;;;3.45;2.53;;;15.80;66.30;;;;;;5052179;28;20063;-71
2022/11/12 12:12:41;;;;;;;4.35;2.92;;;15.80;66.30;;;;;;5052615;28;20123;-72
2022/11/12 12:15:23;;;;;;;3.90;2.80;;;15.80;66.30;;;;;;5051997;28;20053;-72
2022/11/12 12:17:56;;;;;;;3.08;2.50;;;15.70;66.30;;;;;;5051522;28;20064;-72
2022/11/12 12:20:25;;;;;;;3.65;2.70;;;15.80;66.40;;;;;;5050991;28;20098;-72
2022/11/12 12:22:53;;;;;;;3.90;2.63;;;15.70;66.30;;;;;;5051199;28;20052;-71
2022/11/12 12:25:22;;;;;;;3.83;2.90;;;15.70;66.40;;;;;;5050769;28;20136;-72
2022/11/12 12:27:51;;;;;;;4.38;2.70;;;15.70;66.40;;;;;;5053779;28;20055;-72
2022/11/12 12:30:20;;;;;;;3.50;2.60;;;15.70;66.40;;;;;;5052161;28;20528;-71
2022/11/12 12:32:49;;;;;;;5.82;2.90;;;15.70;66.40;;;;;;5050810;28;20123;-72
2022/11/12 12:35:23;;;;;;;3.42;2.65;;;15.70;66.50;;;;;;5050904;28;20071;-71
2022/11/12 12:37:52;;;;;;;4.00;2.63;;;15.70;66.50;;;;;;5050903;28;20135;-71
2022/11/12 12:40:21;;;;;;;3.90;2.63;;;15.70;66.50;;;;;;5050225;28;20053;-72
2022/11/12 12:42:50;;;;;;;4.00;2.92;;;15.70;66.50;;;;;;5050887;28;20049;-71
2022/11/12 12:45:37;;;;;;;3.92;2.90;;;15.60;66.50;;;;;;5050975;28;20184;-72
2022/11/12 12:48:05;;;;;;;4.32;2.60;;;15.60;66.40;;;;;;5050576;28;20057;-72
2022/11/12 12:50:33;;;;;;;3.95;2.70;;;15.60;66.60;;;;;;5050158;28;20053;-72
2022/11/12 12:53:01;;;;;;;3.88;2.80;;;15.60;66.60;;;;;;5050753;28;20051;-72
2022/11/12 12:55:41;;;;;;;4.55;2.80;;;15.60;66.60;;;;;;5050507;28;20048;-72
2022/11/12 12:58:19;;;;;;;2.88;2.53;;;15.60;66.60;;;;;;5050594;28;20063;-71
2022/11/12 13:00:50;;;;;;;3.33;2.75;;;15.60;66.60;;;;;;5049817;28;20095;-72
2022/11/12 13:03:48;;;;;;;3.10;2.55;;;15.50;67.20;;;;;;5050305;28;20049;-71
2022/11/12 13:06:22;;;;;;;3.75;2.50;;;15.50;66.60;;;;;;5050709;28;20572;-72
2022/11/12 13:08:49;;;;;;;3.70;2.92;;;15.50;66.70;;;;;;5050797;28;20501;-72
2022/11/12 13:15:08;;;;;;;4.55;2.60;;;15.50;66.60;;;;;;5050612;28;20044;-72
2022/11/12 13:17:48;;;;;;;3.13;2.47;;;15.50;66.70;;;;;;5051676;28;20167;-71
2022/11/12 13:20:40;;;;;;;4.80;2.70;;;15.40;66.70;;;;;;5050067;28;20053;-71
2022/11/12 13:24:04;;;;;;;3.60;2.72;;;15.40;66.70;;;;;;5050483;28;20059;-72
2022/11/12 13:26:57;;;;;;;3.58;2.70;;;15.40;66.80;;;;;;5050820;28;20055;-72
2022/11/12 13:29:45;;;;;;;3.83;2.83;;;15.40;66.80;;;;;;5051609;28;20245;-72